Time;durP1;ratioP1;P1;durP2;ratioP2;P2;SDS_P1;SDS_P2;PMS_P1;PMS_P2;Temp;Humidity;BMP_temperature;BMP_pressure;BME280_temperature;BME280_humidity;BME280_pressure;Samples;Min_cycle;Max_cycle;Signal;HPM_P1;HPM_P2
2022/05/08 00:00:34;;;;;;;16.50;10.23;;;13.50;69.50;;;;;;5015260;28;20461;-88
2022/05/08 00:03:00;;;;;;;16.30;10.40;;;13.50;69.60;;;;;;5036275;28;20025;-88
2022/05/08 00:05:25;;;;;;;14.68;10.50;;;13.40;69.70;;;;;;5036044;28;20014;-87
2022/05/08 00:07:51;;;;;;;13.90;8.88;;;13.40;69.90;;;;;;5007195;28;20053;-88
2022/05/08 00:10:17;;;;;;;10.60;8.52;;;13.40;69.90;;;;;;4984029;28;20098;-88
2022/05/08 00:12:43;;;;;;;11.82;8.30;;;13.30;70.00;;;;;;4996595;28;20038;-88
2022/05/08 00:15:09;;;;;;;10.15;8.05;;;13.30;70.70;;;;;;4996048;28;20029;-88
2022/05/08 00:17:34;;;;;;;10.85;8.07;;;13.30;70.30;;;;;;5015030;28;20084;-88
2022/05/08 00:20:08;;;;;;;8.60;7.18;;;13.30;70.40;;;;;;5016044;28;20096;-88
2022/05/08 00:22:34;;;;;;;11.10;7.43;;;13.20;70.70;;;;;;4997748;28;20486;-89
2022/05/08 00:25:00;;;;;;;8.80;6.78;;;13.30;70.60;;;;;;5015061;28;20108;-88
2022/05/08 00:27:26;;;;;;;10.57;7.95;;;13.20;70.60;;;;;;4997985;28;20116;-88
2022/05/08 00:29:51;;;;;;;11.13;7.53;;;13.20;70.70;;;;;;5006024;28;20060;-88
2022/05/08 00:32:18;;;;;;;10.48;7.22;;;13.20;71.30;;;;;;5015126;28;20026;-88
2022/05/08 00:34:43;;;;;;;8.18;7.38;;;13.10;70.80;;;;;;5014327;28;20022;-88
2022/05/08 00:37:10;;;;;;;8.30;6.78;;;13.10;71.00;;;;;;5009471;28;20034;-89
2022/05/08 00:39:36;;;;;;;10.57;7.95;;;13.10;71.00;;;;;;4993181;28;20026;-88
2022/05/08 00:42:01;;;;;;;9.93;7.55;;;13.00;71.10;;;;;;5017092;28;20112;-87
2022/05/08 00:44:27;;;;;;;9.48;7.60;;;13.00;71.50;;;;;;5018735;28;20022;-87
2022/05/08 00:46:52;;;;;;;11.00;7.63;;;12.90;71.50;;;;;;5020015;28;20042;-88
2022/05/08 00:49:18;;;;;;;11.75;7.72;;;12.90;71.60;;;;;;5009132;28;20049;-89
2022/05/08 00:51:47;;;;;;;10.55;7.32;;;12.90;71.60;;;;;;4999647;28;20034;-89
2022/05/08 00:54:13;;;;;;;10.05;7.55;;;12.80;71.70;;;;;;4997680;28;20030;-89
2022/05/08 00:56:40;;;;;;;12.77;7.32;;;12.80;71.80;;;;;;4997761;28;20041;-89
2022/05/08 00:59:06;;;;;;;10.52;7.97;;;12.80;71.90;;;;;;4998151;28;20450;-88
2022/05/08 01:01:32;;;;;;;10.88;7.82;;;12.70;71.90;;;;;;4996886;28;20101;-89
2022/05/08 01:03:57;;;;;;;9.68;7.68;;;12.70;72.00;;;;;;4994431;28;20022;-88
2022/05/08 01:06:23;;;;;;;9.98;7.70;;;12.60;72.10;;;;;;4998961;28;20034;-89
2022/05/08 01:08:53;;;;;;;8.68;7.40;;;12.60;72.30;;;;;;4994434;28;20034;-89
2022/05/08 01:11:19;;;;;;;11.90;7.40;;;12.60;72.50;;;;;;4978248;28;20184;-89
2022/05/08 01:13:45;;;;;;;9.32;7.47;;;12.60;72.70;;;;;;4978031;28;20541;-89
2022/05/08 01:16:18;;;;;;;8.23;7.38;;;12.60;72.80;;;;;;4979317;28;20126;-89
2022/05/08 01:18:45;;;;;;;11.35;7.88;;;12.50;72.90;;;;;;4996855;28;20029;-88
2022/05/08 01:21:13;;;;;;;9.10;7.35;;;12.50;72.80;;;;;;4994277;28;20038;-89
2022/05/08 01:23:40;;;;;;;8.73;7.38;;;12.50;73.00;;;;;;4990670;28;20034;-89
2022/05/08 01:26:06;;;;;;;8.52;7.20;;;12.50;73.00;;;;;;4993986;28;20102;-89
2022/05/08 01:28:32;;;;;;;9.57;7.38;;;12.40;73.00;;;;;;4994369;28;20510;-88
2022/05/08 01:30:58;;;;;;;9.07;7.57;;;12.40;73.10;;;;;;4979725;28;20026;-89
2022/05/08 01:33:24;;;;;;;11.57;7.57;;;12.40;73.20;;;;;;4997306;28;20108;-88
2022/05/08 01:35:50;;;;;;;9.68;7.43;;;12.40;73.30;;;;;;4995954;28;20032;-88
2022/05/08 01:38:18;;;;;;;12.57;7.50;;;12.40;73.40;;;;;;4997129;28;20049;-88
2022/05/08 01:40:44;;;;;;;10.82;7.53;;;12.30;73.50;;;;;;4996705;28;20112;-88
2022/05/08 01:43:11;;;;;;;8.48;7.50;;;12.30;73.50;;;;;;4993890;28;20718;-89
2022/05/08 01:45:38;;;;;;;7.68;6.88;;;12.30;73.80;;;;;;4980037;28;20073;-89
2022/05/08 01:48:22;;;;;;;11.02;7.40;;;12.20;73.90;;;;;;5014614;28;20045;-88
2022/05/08 01:50:50;;;;;;;8.52;7.45;;;12.20;73.90;;;;;;5004996;28;20052;-89
2022/05/08 01:53:19;;;;;;;10.43;7.30;;;12.20;73.90;;;;;;5019044;28;20030;-88
2022/05/08 01:55:47;;;;;;;8.88;7.30;;;12.20;73.90;;;;;;5005380;28;20033;-88
2022/05/08 01:58:12;;;;;;;12.27;7.40;;;12.20;74.00;;;;;;5020855;28;20076;-88
2022/05/08 02:00:38;;;;;;;10.35;8.00;;;12.10;74.10;;;;;;4995989;28;20041;-89
2022/05/08 02:03:04;;;;;;;9.93;8.15;;;12.10;74.30;;;;;;4994521;28;20092;-88
2022/05/08 02:05:32;;;;;;;9.57;7.90;;;12.10;74.40;;;;;;4994727;28;20037;-89
2022/05/08 02:08:01;;;;;;;9.30;7.97;;;12.10;74.40;;;;;;4995760;28;20045;-89
2022/05/08 02:10:26;;;;;;;9.10;7.25;;;12.10;74.60;;;;;;4995743;28;20026;-89
2022/05/08 02:12:52;;;;;;;11.85;8.20;;;12.10;74.70;;;;;;5012739;28;20106;-89
2022/05/08 02:15:18;;;;;;;8.80;7.50;;;12.00;74.70;;;;;;4991898;28;20037;-88
2022/05/08 02:17:43;;;;;;;8.82;7.75;;;12.00;74.60;;;;;;4991611;28;20033;-89
2022/05/08 02:20:09;;;;;;;8.80;7.90;;;12.00;74.60;;;;;;4995661;28;20026;-89
2022/05/08 02:22:36;;;;;;;9.90;8.57;;;11.90;75.40;;;;;;4995721;28;20025;-89
2022/05/08 02:25:03;;;;;;;10.82;8.80;;;11.90;75.10;;;;;;4994717;28;20028;-89
2022/05/08 02:27:40;;;;;;;11.88;8.27;;;11.90;75.20;;;;;;4994952;28;20022;-89
2022/05/08 02:30:11;;;;;;;10.65;8.70;;;11.90;75.50;;;;;;4995587;28;20053;-89
2022/05/08 02:32:37;;;;;;;10.90;8.80;;;11.80;75.50;;;;;;4995078;28;20124;-90
2022/05/08 02:35:04;;;;;;;10.30;8.63;;;11.80;75.50;;;;;;4989854;28;20044;-89
2022/05/08 02:37:30;;;;;;;12.60;8.88;;;11.80;75.60;;;;;;4975875;28;20026;-89
2022/05/08 02:39:56;;;;;;;10.80;9.32;;;11.80;75.60;;;;;;4992282;28;20081;-88
2022/05/08 02:42:21;;;;;;;13.65;10.27;;;11.80;75.60;;;;;;4992278;28;20029;-88
2022/05/08 02:44:47;;;;;;;17.05;10.35;;;11.80;75.60;;;;;;4984058;28;20030;-89
2022/05/08 02:47:12;;;;;;;13.57;10.32;;;11.80;75.70;;;;;;5006464;28;20037;-89
2022/05/08 02:49:38;;;;;;;14.05;10.45;;;11.70;75.80;;;;;;5004488;28;20527;-88
2022/05/08 02:52:04;;;;;;;13.75;10.43;;;11.70;76.00;;;;;;4957573;28;1119260;-89
2022/05/08 02:54:30;;;;;;;13.40;10.18;;;11.70;76.20;;;;;;4995778;28;20026;-88
2022/05/08 02:59:39;;;;;;;11.82;10.23;;;11.60;76.40;;;;;;5013993;28;20028;-89
2022/05/08 03:02:06;;;;;;;12.02;9.95;;;11.60;76.40;;;;;;4995866;28;20413;-89
2022/05/08 03:04:31;;;;;;;11.82;9.35;;;11.60;76.50;;;;;;5012525;28;20014;-89
2022/05/08 03:06:57;;;;;;;11.90;9.52;;;11.50;76.60;;;;;;4995429;28;20548;-89
2022/05/08 03:09:22;;;;;;;13.25;9.98;;;11.50;76.70;;;;;;4994871;28;20033;-89
2022/05/08 03:11:48;;;;;;;12.27;9.15;;;11.40;76.70;;;;;;4997127;28;20026;-89
2022/05/08 03:14:14;;;;;;;12.77;9.60;;;11.40;76.90;;;;;;4995965;28;20080;-89
2022/05/08 03:16:40;;;;;;;10.73;8.90;;;11.40;77.00;;;;;;4995370;28;20135;-89
2022/05/08 03:19:06;;;;;;;13.18;9.02;;;11.30;77.10;;;;;;4995600;28;20022;-89
2022/05/08 03:21:32;;;;;;;11.80;9.15;;;11.30;77.10;;;;;;4995822;28;20025;-89
2022/05/08 03:23:57;;;;;;;11.18;8.82;;;11.30;77.20;;;;;;4993249;28;20159;-89
2022/05/08 03:26:24;;;;;;;12.35;9.23;;;11.30;77.30;;;;;;4975543;28;20050;-89
2022/05/08 03:28:50;;;;;;;13.27;8.85;;;11.20;77.40;;;;;;4979490;28;20026;-89
2022/05/08 03:31:15;;;;;;;10.85;8.02;;;11.20;77.50;;;;;;5021493;28;20030;-88
2022/05/08 03:33:41;;;;;;;10.20;8.52;;;11.20;77.50;;;;;;5027888;28;20025;-89
2022/05/08 03:36:10;;;;;;;12.25;8.68;;;11.20;77.60;;;;;;5013532;28;20060;-88
2022/05/08 03:38:40;;;;;;;12.50;8.70;;;11.20;77.80;;;;;;4998581;28;20026;-89
2022/05/08 03:41:07;;;;;;;8.70;7.80;;;11.10;77.90;;;;;;4994493;28;20034;-89
2022/05/08 03:43:34;;;;;;;10.65;8.18;;;11.20;78.00;;;;;;4994928;28;20029;-89
2022/05/08 03:45:59;;;;;;;11.55;8.50;;;11.10;77.90;;;;;;4994889;28;20076;-89
2022/05/08 03:48:25;;;;;;;11.07;8.50;;;11.10;77.90;;;;;;4995331;28;20037;-88
2022/05/08 05:22:31;;;;;;;13.05;9.38;;;11.60;80.70;;;;;;5036359;28;20035;-87
2022/05/08 05:40:13;;;;;;;11.60;8.60;;;12.00;81.30;;;;;;4899247;29;20238;-87
2022/05/08 05:50:41;;;;;;;11.63;8.85;;;12.10;81.50;;;;;;4831571;29;20045;-89
2022/05/08 05:54:22;;;;;;;9.90;8.73;;;12.10;81.60;;;;;;4859889;29;20057;-88
2022/05/08 06:11:35;;;;;;;11.48;9.98;;;12.20;82.30;;;;;;4853545;29;20056;-88
2022/05/08 08:56:39;;;;;;;8.73;7.88;;;21.60;76.10;;;;;;4845085;29;20139;-88
2022/05/08 09:17:08;;;;;;;8.75;6.85;;;22.80;73.00;;;;;;4835795;29;20106;-88
2022/05/08 09:53:51;;;;;;;6.32;4.07;;;29.10;55.80;;;;;;5074008;22;20061;-88
2022/05/08 09:56:17;;;;;;;5.60;3.65;;;29.10;55.00;;;;;;4976379;28;20023;-88
2022/05/08 09:58:43;;;;;;;5.10;3.90;;;29.00;54.20;;;;;;4976960;28;20081;-88
2022/05/08 10:01:09;;;;;;;4.53;3.83;;;28.60;53.40;;;;;;4993347;28;20030;-88
2022/05/08 10:03:35;;;;;;;6.47;4.40;;;28.40;53.30;;;;;;4976499;28;20035;-88
2022/05/08 10:06:02;;;;;;;4.50;3.78;;;28.50;53.10;;;;;;4994021;28;20033;-88
2022/05/08 10:08:35;;;;;;;7.38;3.60;;;28.70;52.40;;;;;;4976835;28;20169;-88
2022/05/08 10:14:05;;;;;;;4.55;3.67;;;28.60;51.60;;;;;;5004745;28;20126;-86
2022/05/08 10:16:53;;;;;;;4.38;3.13;;;28.00;51.80;;;;;;4998649;28;20237;-87
2022/05/08 10:19:19;;;;;;;5.32;3.53;;;27.10;52.50;;;;;;4999065;28;20014;-88
2022/05/08 10:22:00;;;;;;;8.35;3.50;;;26.50;53.10;;;;;;4984125;28;20045;-88
2022/05/08 10:24:34;;;;;;;6.35;3.45;;;26.00;53.30;;;;;;4976597;28;20029;-88
2022/05/08 10:27:22;;;;;;;4.13;3.45;;;25.40;53.50;;;;;;4975354;28;20032;-88
2022/05/08 10:29:50;;;;;;;8.43;3.20;;;24.90;54.00;;;;;;4992824;28;20033;-88
2022/05/08 10:32:29;;;;;;;8.02;3.13;;;24.40;54.50;;;;;;4975591;28;20026;-88
2022/05/08 10:35:14;;;;;;;9.63;3.20;;;24.50;54.50;;;;;;4975801;28;20027;-88
2022/05/08 10:37:41;;;;;;;3.97;2.90;;;24.60;54.60;;;;;;4975493;28;20084;-88
2022/05/08 10:40:22;;;;;;;5.30;3.13;;;24.60;54.50;;;;;;4976082;28;20486;-88
2022/05/08 10:42:59;;;;;;;6.03;3.20;;;24.60;54.50;;;;;;4975651;28;20026;-88
2022/05/08 10:45:33;;;;;;;4.05;2.60;;;24.90;53.90;;;;;;4975322;28;20512;-88
2022/05/08 10:48:16;;;;;;;5.10;2.58;;;24.80;53.70;;;;;;4975198;28;20019;-89
2022/05/08 10:50:43;;;;;;;5.80;3.08;;;24.70;53.60;;;;;;4976343;28;20114;-89
2022/05/08 10:53:26;;;;;;;5.72;3.13;;;24.30;54.50;;;;;;4992809;28;20473;-88
2022/05/08 10:56:18;;;;;;;4.15;2.60;;;24.80;54.00;;;;;;4975384;28;20038;-88
2022/05/08 10:58:56;;;;;;;5.90;2.75;;;25.30;53.80;;;;;;4972201;28;20030;-88
2022/05/08 11:01:23;;;;;;;2.45;2.20;;;25.30;53.90;;;;;;4972501;28;20077;-88
2022/05/08 11:03:48;;;;;;;6.35;3.15;;;25.60;54.00;;;;;;4959603;28;20077;-87
2022/05/08 11:06:19;;;;;;;2.72;2.45;;;25.50;53.60;;;;;;4971292;28;20030;-86
2022/05/08 11:08:45;;;;;;;4.93;2.63;;;25.30;53.10;;;;;;4974596;28;20122;-88
2022/05/08 11:11:12;;;;;;;6.18;2.38;;;25.10;53.50;;;;;;4975482;28;20172;-89
2022/05/08 11:13:48;;;;;;;5.80;2.60;;;24.90;53.50;;;;;;4974572;28;20026;-88
2022/05/08 11:16:33;;;;;;;5.50;2.30;;;24.70;53.20;;;;;;4975119;28;20435;-88
2022/05/08 11:18:59;;;;;;;3.40;2.60;;;24.60;53.60;;;;;;4975090;28;20113;-88
2022/05/08 11:21:26;;;;;;;4.03;2.55;;;24.60;53.50;;;;;;4974931;28;20022;-87
2022/05/08 11:23:53;;;;;;;5.18;2.60;;;24.60;53.80;;;;;;4992734;28;20104;-88
2022/05/08 11:26:26;;;;;;;3.75;2.70;;;24.50;53.40;;;;;;4974872;28;20030;-88
2022/05/08 11:28:55;;;;;;;5.18;2.38;;;24.40;53.40;;;;;;4987629;28;20029;-89
2022/05/08 11:31:23;;;;;;;5.47;2.65;;;24.30;53.40;;;;;;4992655;28;20048;-88
2022/05/08 11:36:38;;;;;;;4.93;2.58;;;24.10;53.40;;;;;;4992629;28;20041;-88
2022/05/08 11:39:09;;;;;;;3.22;2.47;;;24.10;53.30;;;;;;4975085;28;20157;-88
2022/05/08 11:41:37;;;;;;;4.37;2.60;;;24.00;53.80;;;;;;4992634;28;20030;-88
2022/05/08 11:44:17;;;;;;;6.82;2.58;;;23.90;53.50;;;;;;4976059;28;20085;-88
2022/05/08 11:46:45;;;;;;;2.92;2.60;;;23.90;53.70;;;;;;4970428;28;20114;-89
2022/05/08 11:49:16;;;;;;;4.32;2.72;;;23.70;53.70;;;;;;4955358;28;20035;-88
2022/05/08 11:51:43;;;;;;;4.50;2.80;;;23.60;53.60;;;;;;4955422;28;20031;-87
2022/05/08 11:54:23;;;;;;;3.90;2.05;;;23.50;53.80;;;;;;4955557;28;20105;-86
2022/05/08 11:56:52;;;;;;;2.53;2.30;;;23.40;53.90;;;;;;4956620;28;20387;-88
2022/05/08 11:59:22;;;;;;;3.08;2.40;;;23.30;53.90;;;;;;4986205;28;20383;-88
2022/05/08 12:01:53;;;;;;;3.95;2.45;;;23.20;53.60;;;;;;4974632;28;20022;-88
2022/05/08 12:04:31;;;;;;;3.95;2.63;;;23.10;53.70;;;;;;4975133;28;20029;-88
2022/05/08 12:07:07;;;;;;;5.35;2.75;;;23.10;53.90;;;;;;4975628;28;20035;-89
2022/05/08 12:09:39;;;;;;;6.53;2.60;;;23.00;53.90;;;;;;4992531;28;20058;-88
2022/05/08 12:12:30;;;;;;;5.25;2.47;;;22.90;54.70;;;;;;4974791;28;20034;-88
2022/05/08 12:15:03;;;;;;;6.25;2.85;;;22.80;54.10;;;;;;4974318;28;20030;-89
2022/05/08 12:17:30;;;;;;;3.75;2.70;;;22.80;54.10;;;;;;4991822;28;20061;-88
2022/05/08 12:19:57;;;;;;;5.15;2.72;;;22.80;54.70;;;;;;4991993;28;20030;-88
2022/05/08 12:22:30;;;;;;;4.38;2.58;;;22.80;54.50;;;;;;4974775;28;20114;-89
2022/05/08 12:24:58;;;;;;;2.97;2.67;;;22.80;53.90;;;;;;4974349;28;20023;-89
2022/05/08 12:27:24;;;;;;;3.65;2.47;;;22.80;54.20;;;;;;4975350;28;20026;-88
2022/05/08 12:29:50;;;;;;;6.22;3.25;;;22.80;54.20;;;;;;4975234;28;20029;-89
2022/05/08 12:32:17;;;;;;;3.00;2.33;;;22.70;54.20;;;;;;4988916;28;20082;-86
2022/05/08 12:34:47;;;;;;;3.75;2.20;;;22.80;54.10;;;;;;5006165;28;20014;-86
2022/05/08 12:37:14;;;;;;;3.90;2.33;;;22.80;53.90;;;;;;5022656;28;20094;-86
2022/05/08 12:39:41;;;;;;;4.55;2.53;;;22.80;54.20;;;;;;4973542;28;20480;-88
2022/05/08 12:42:08;;;;;;;2.40;2.20;;;22.90;54.20;;;;;;4955082;28;20023;-87
2022/05/08 12:44:34;;;;;;;4.47;2.72;;;23.00;54.20;;;;;;4952983;28;20436;-89
2022/05/08 12:47:01;;;;;;;3.80;2.53;;;23.10;54.40;;;;;;4954532;28;20395;-88
2022/05/08 12:49:27;;;;;;;2.92;2.13;;;23.20;53.80;;;;;;4953933;28;20055;-88
2022/05/08 12:51:52;;;;;;;4.93;2.40;;;23.30;53.90;;;;;;4971958;28;20022;-88
2022/05/08 12:54:18;;;;;;;4.80;2.17;;;23.30;53.40;;;;;;4954035;28;20137;-88
2022/05/08 12:56:44;;;;;;;3.60;2.58;;;23.40;53.20;;;;;;4954570;28;20061;-88
2022/05/08 13:01:55;;;;;;;5.05;2.40;;;23.40;53.10;;;;;;4993718;28;20065;-88
2022/05/08 13:04:20;;;;;;;3.28;2.30;;;23.40;53.40;;;;;;4994433;28;20019;-88
2022/05/08 13:06:46;;;;;;;3.75;2.42;;;23.40;53.10;;;;;;4977257;28;20022;-88
2022/05/08 13:09:12;;;;;;;2.45;2.25;;;23.40;52.80;;;;;;4978171;28;20038;-88
2022/05/08 13:11:38;;;;;;;3.03;2.17;;;23.40;52.90;;;;;;4979572;28;20483;-88
2022/05/08 13:14:05;;;;;;;2.47;2.13;;;23.40;53.10;;;;;;4976494;28;20192;-88
2022/05/08 13:16:31;;;;;;;6.50;2.60;;;23.40;52.70;;;;;;4994155;28;20053;-88
2022/05/08 13:18:57;;;;;;;6.07;2.53;;;23.40;52.60;;;;;;4976756;28;20023;-89
2022/05/08 13:21:24;;;;;;;2.67;2.10;;;23.40;52.90;;;;;;4976695;28;20084;-89
2022/05/08 13:23:50;;;;;;;2.70;2.03;;;23.50;52.50;;;;;;4976928;28;20065;-88
2022/05/08 13:26:15;;;;;;;2.58;2.05;;;23.50;53.20;;;;;;4993698;28;20104;-88
2022/05/08 13:28:42;;;;;;;2.80;2.40;;;23.50;53.10;;;;;;4971477;28;20046;-88
2022/05/08 13:31:07;;;;;;;3.25;2.40;;;23.60;52.90;;;;;;4976535;28;20034;-88
2022/05/08 13:33:33;;;;;;;3.30;2.22;;;23.60;52.90;;;;;;4976618;28;20146;-88
2022/05/08 13:36:01;;;;;;;2.90;2.28;;;23.70;52.80;;;;;;4976348;28;20053;-88
2022/05/08 13:38:27;;;;;;;4.00;2.25;;;23.70;52.50;;;;;;4977021;28;20032;-88
2022/05/08 13:40:57;;;;;;;2.38;2.03;;;23.70;52.40;;;;;;4976675;28;20046;-87
2022/05/08 13:43:23;;;;;;;5.63;2.45;;;23.60;52.00;;;;;;4975800;28;20402;-88
2022/05/08 13:45:50;;;;;;;2.25;1.98;;;23.60;52.50;;;;;;4994096;28;20035;-88
2022/05/08 13:48:18;;;;;;;5.00;2.38;;;23.60;52.20;;;;;;4976950;28;20030;-88
2022/05/08 13:50:48;;;;;;;2.70;2.40;;;23.60;52.10;;;;;;4976883;28;20104;-89
2022/05/08 13:53:14;;;;;;;2.22;2.03;;;23.50;52.30;;;;;;4976451;28;20056;-89
2022/05/08 13:55:43;;;;;;;3.83;2.35;;;23.50;52.30;;;;;;4992705;28;20026;-88
2022/05/08 13:58:10;;;;;;;2.97;1.88;;;23.30;52.10;;;;;;4975992;28;20447;-88
2022/05/08 14:00:38;;;;;;;2.95;2.17;;;23.20;52.30;;;;;;4973579;28;20030;-88
2022/05/08 14:03:05;;;;;;;5.05;2.38;;;23.20;52.50;;;;;;4956677;28;20449;-87
2022/05/08 14:05:31;;;;;;;3.72;2.60;;;23.10;52.40;;;;;;4974287;28;20034;-88
2022/05/08 14:07:57;;;;;;;3.38;2.40;;;23.00;52.50;;;;;;4975919;28;20027;-88
2022/05/08 14:10:23;;;;;;;3.88;2.75;;;23.00;52.40;;;;;;4975208;28;20069;-88
2022/05/08 14:12:49;;;;;;;2.72;1.95;;;22.90;52.60;;;;;;4993926;28;20148;-88
2022/05/08 14:15:15;;;;;;;3.30;2.20;;;22.80;52.50;;;;;;4976162;28;20567;-88
2022/05/08 14:17:40;;;;;;;3.17;2.38;;;22.80;52.70;;;;;;4977225;28;20116;-88
2022/05/08 14:20:10;;;;;;;4.00;2.05;;;22.80;52.60;;;;;;4975177;28;20030;-87
2022/05/08 14:22:35;;;;;;;4.88;2.03;;;22.80;52.80;;;;;;4975506;28;20057;-86
2022/05/08 14:25:01;;;;;;;4.32;2.45;;;22.80;52.70;;;;;;4974036;28;20058;-88
2022/05/08 14:27:28;;;;;;;4.18;2.50;;;22.80;52.70;;;;;;4976015;28;20033;-88
2022/05/08 14:29:55;;;;;;;3.70;2.30;;;22.80;52.50;;;;;;4978102;28;20042;-88
2022/05/08 14:37:50;;;;;;;3.65;2.45;;;22.80;53.30;;;;;;5009094;28;20061;-87
2022/05/08 14:40:15;;;;;;;6.88;2.65;;;22.80;53.10;;;;;;5018853;28;20007;-88
2022/05/08 14:42:41;;;;;;;3.50;2.50;;;22.80;53.00;;;;;;5000455;28;20038;-87
2022/05/08 14:45:07;;;;;;;3.08;2.20;;;22.80;53.00;;;;;;4988150;28;20467;-88
2022/05/08 14:47:34;;;;;;;1.90;1.80;;;22.80;52.90;;;;;;4976702;28;20026;-87
2022/05/08 14:50:00;;;;;;;2.55;2.10;;;22.80;52.50;;;;;;4993963;28;20022;-88
2022/05/08 14:52:25;;;;;;;3.75;2.30;;;22.80;52.50;;;;;;4992461;28;20041;-87
2022/05/08 14:54:51;;;;;;;2.63;2.28;;;22.80;52.40;;;;;;4976721;28;20030;-89
2022/05/08 14:57:17;;;;;;;2.60;2.03;;;22.80;52.50;;;;;;4985138;28;20031;-88
2022/05/08 14:59:43;;;;;;;3.42;2.00;;;22.80;52.50;;;;;;4971937;28;20043;-87
2022/05/08 15:02:09;;;;;;;6.65;2.15;;;22.80;52.60;;;;;;4962906;28;20069;-86
2022/05/08 15:04:35;;;;;;;2.67;2.05;;;22.80;52.60;;;;;;4974865;28;20030;-87
2022/05/08 15:07:03;;;;;;;6.60;2.22;;;22.90;52.80;;;;;;4993595;28;20034;-88
2022/05/08 15:09:28;;;;;;;4.65;2.38;;;22.90;52.80;;;;;;4976321;28;20133;-88
2022/05/08 15:11:54;;;;;;;3.22;2.05;;;22.90;52.60;;;;;;4975465;28;20394;-88
2022/05/08 15:14:21;;;;;;;2.70;2.08;;;22.90;52.40;;;;;;4975111;28;20031;-88
2022/05/08 15:16:47;;;;;;;2.45;2.15;;;22.80;52.70;;;;;;4975487;28;20493;-87
2022/05/08 15:19:15;;;;;;;2.58;2.30;;;22.80;52.80;;;;;;4975315;28;20109;-88
2022/05/08 15:21:41;;;;;;;3.60;2.13;;;22.70;52.50;;;;;;4975881;28;20030;-88
2022/05/08 15:24:07;;;;;;;7.75;6.18;;;22.70;52.60;;;;;;4994405;28;20026;-88
2022/05/08 15:26:33;;;;;;;3.70;2.67;;;22.60;52.60;;;;;;4967894;28;20035;-88
2022/05/08 15:28:59;;;;;;;2.90;2.20;;;22.60;52.90;;;;;;4974469;28;20084;-88
2022/05/08 15:31:25;;;;;;;5.20;2.47;;;22.60;52.50;;;;;;4992301;28;20392;-88
2022/05/08 15:33:51;;;;;;;3.67;2.20;;;22.60;52.40;;;;;;4992416;28;20026;-88
2022/05/08 15:36:17;;;;;;;5.00;2.25;;;22.50;52.60;;;;;;4992022;28;20697;-88
2022/05/08 15:38:42;;;;;;;2.38;2.00;;;22.50;52.60;;;;;;4975894;28;20073;-89
2022/05/08 15:41:08;;;;;;;2.95;2.33;;;22.50;52.80;;;;;;4992462;28;20031;-87
2022/05/08 15:43:34;;;;;;;3.70;2.63;;;22.40;52.70;;;;;;4974762;28;20036;-87
2022/05/08 15:46:01;;;;;;;2.92;2.00;;;22.40;52.60;;;;;;4974343;28;20470;-87
2022/05/08 15:48:26;;;;;;;3.47;2.30;;;22.40;52.90;;;;;;4974846;28;20026;-87
2022/05/08 15:50:52;;;;;;;3.42;2.10;;;22.30;52.80;;;;;;4974710;28;20479;-88
